Barry Silverton — WDI2338 — position and weather

sailwx.info

Track history (hours):
 
Tides and Currents Weather Stations Pressure Air Temp Water Temp Dewpoint Dewpoint Depression Visibility Wind Speed Wind Dir Waves Ship Positions

Barry Silverton

Owner: Harley Marine Services, Inc, Seattle, WA. More information available from US FCC via Universal Licensing System and Coast Guard Vessel Documentation Center.

Last reported at 2017-Oct-20 09:09 UTC. Time now 2017-Oct-20 12:48 UTC.
Position N 40°36' W 074°12'.

Length 178 m; draft 4.3 m.

Type: Ship. MMSI: 367677130.

Date/timePositionNaut miles runAvg speedWind from/ knotsBaromVisibWave heightAir tempDewpointWater temp
2017-Oct-20 09:09N 40°36' W 074°12'0 0.0
2017-Oct-20 08:57N 40°36' W 074°12'0 0.0
2017-Oct-20 08:27N 40°36' W 074°12'0 0.0
2017-Oct-20 07:57N 40°36' W 074°12'0 0.0
2017-Oct-20 07:30N 40°36' W 074°12'0 0.0
2017-Oct-20 06:57N 40°36' W 074°12'0 0.0
2017-Oct-20 06:30N 40°36' W 074°12'0 0.0
2017-Oct-20 05:54N 40°36' W 074°12'0 0.0
2017-Oct-20 05:27N 40°36' W 074°12'0 0.0
2017-Oct-20 04:27N 40°36' W 074°12'0 0.0
2017-Oct-20 02:33N 40°36' W 074°12'0 0.0
2017-Oct-20 02:27N 40°36' W 074°12'0 0.0
2017-Oct-20 01:55N 40°36' W 074°12'1 3.1
2017-Oct-20 01:30N 40°35' W 074°13'1 2.4
2017-Oct-20 00:59N 40°36' W 074°12'2 5.1
2017-Oct-20 00:30N 40°38' W 074°12'4 7.0
2017-Oct-20 00:00N 40°39' W 074°07'3 5.4
2017-Oct-19 23:30N 40°39' W 074°04'4 8.6
2017-Oct-19 23:00N 40°43' W 074°01'4 8.6
2017-Oct-19 22:30N 40°47' W 073°60'1 1.9
2017-Oct-19 21:58N 40°48' W 073°59'0 0.3
2017-Oct-19 21:28N 40°48' W 073°59'0 0.1
2017-Oct-19 20:52N 40°48' W 073°59'0 0.0
2017-Oct-19 20:28N 40°48' W 073°59'0 0.0
2017-Oct-19 19:58N 40°48' W 073°59'0 0.0
2017-Oct-19 19:25N 40°48' W 073°59'0 0.0
2017-Oct-19 18:58N 40°48' W 073°59'0 0.0
2017-Oct-19 18:25N 40°48' W 073°59'0 0.0
2017-Oct-19 17:58N 40°48' W 073°59'0 0.1
2017-Oct-19 17:10N 40°48' W 073°59'0 0.3
2017-Oct-19 16:58N 40°48' W 073°59'0 0.1
2017-Oct-19 16:30N 40°48' W 073°59'0 0.1
2017-Oct-19 16:00N 40°48' W 073°59'2 4.3
2017-Oct-19 15:30N 40°46' W 074°00'4 8.9
2017-Oct-19 15:00N 40°42' W 074°01'5 9.5
2017-Oct-19 14:30N 40°46' W 073°57'3 6.3
2017-Oct-19 14:00N 40°48' W 073°54'4 7.8
2017-Oct-19 13:29N 40°48' W 073°49'4 7.4
2017-Oct-19 13:00N 40°51' W 073°46'3 6.9
2017-Oct-19 12:30N 40°54' W 073°43'3 6.2
2017-Oct-19 12:00N 40°55' W 073°39'3 6.1
2017-Oct-19 11:30N 40°57' W 073°36'41 8.7
2017-Oct-19 06:49N 41°06' W 072°43'3 8.5
2017-Oct-19 06:29N 41°07' W 072°40'4 8.1
2017-Oct-19 06:00N 41°08' W 072°35'4 7.9
2017-Oct-19 05:29N 41°09' W 072°30'4 7.9
2017-Oct-19 05:00N 41°10' W 072°25'4 7.9
2017-Oct-19 04:30N 41°12' W 072°20'4 8.6
2017-Oct-19 04:00N 41°13' W 072°15'5 9.4
2017-Oct-19 03:28N 41°14' W 072°08'5 9.9
2017-Oct-19 02:57N 41°14' W 072°01'86 7.8
2017-Oct-18 15:53N 42°10' W 070°32'410.0
2017-Oct-18 15:30N 42°13' W 070°35'510.4
2017-Oct-18 15:00N 42°16' W 070°40'10 9.7
2017-Oct-18 14:00N 42°19' W 070°52'3 6.7
2017-Oct-18 13:30N 42°17' W 070°56'3 0.5
2017-Oct-18 06:19N 42°14' W 070°58'0 0.0
2017-Oct-18 05:55N 42°14' W 070°58'0 0.0
2017-Oct-17 22:19N 42°14' W 070°58'0 0.0
2017-Oct-17 15:51N 42°14' W 070°58'1 2.3
2017-Oct-17 15:28N 42°15' W 070°57'3 6.1
2017-Oct-17 15:00N 42°18' W 070°56'2 4.5
2017-Oct-17 14:30N 42°19' W 070°53'2 3.9
2017-Oct-17 13:58N 42°20' W 070°51'2 4.7
2017-Oct-17 13:30N 42°22' W 070°50'3 6.5
2017-Oct-17 13:00N 42°21' W 070°54'3 5.3
2017-Oct-17 12:29N 42°20' W 070°58'0 0.1
2017-Oct-17 11:59N 42°20' W 070°58'0 0.0
2017-Oct-17 11:29N 42°20' W 070°58'0 0.2
2017-Oct-17 10:59N 42°20' W 070°58'0 0.0
2017-Oct-17 10:29N 42°20' W 070°58'0 0.1
2017-Oct-17 09:59N 42°20' W 070°58'0 0.2
2017-Oct-17 09:29N 42°20' W 070°58'0 0.0
2017-Oct-17 08:59N 42°20' W 070°58'0 0.1
2017-Oct-17 08:29N 42°20' W 070°58'0 0.1
2017-Oct-17 07:59N 42°20' W 070°58'0 0.1
2017-Oct-17 07:29N 42°20' W 070°58'0 0.0
2017-Oct-17 06:59N 42°20' W 070°58'0 0.0
2017-Oct-17 06:29N 42°20' W 070°58'0 0.0
2017-Oct-17 05:59N 42°20' W 070°58'0 0.0
2017-Oct-17 05:29N 42°20' W 070°58'0 0.0
2017-Oct-17 04:59N 42°20' W 070°58'0 0.0
2017-Oct-17 04:29N 42°20' W 070°58'0 0.0
2017-Oct-17 03:59N 42°20' W 070°58'0 0.0
2017-Oct-17 03:14N 42°20' W 070°58'0 0.0
2017-Oct-17 02:59N 42°20' W 070°58'0 0.1
2017-Oct-17 02:29N 42°20' W 070°58'0 0.1
2017-Oct-17 01:59N 42°20' W 070°58'0 0.1
2017-Oct-17 01:29N 42°20' W 070°58'0 0.0
2017-Oct-17 00:59N 42°20' W 070°58'0 0.0
2017-Oct-17 00:29N 42°20' W 070°58'0 0.1
2017-Oct-16 23:59N 42°20' W 070°58'0 0.2
2017-Oct-16 23:29N 42°20' W 070°58'0 0.3
2017-Oct-16 22:59N 42°20' W 070°58'0 0.1
2017-Oct-16 22:29N 42°20' W 070°58'0 0.1
2017-Oct-16 21:59N 42°20' W 070°58'0 0.1
2017-Oct-16 21:29N 42°20' W 070°58'0 0.4
2017-Oct-16 20:59N 42°20' W 070°58'0 0.2
2017-Oct-16 20:29N 42°20' W 070°58'0 0.0
2017-Oct-16 19:59N 42°20' W 070°58'0 0.0
2017-Oct-16 19:29N 42°20' W 070°58'0 0.0
2017-Oct-16 18:59N 42°20' W 070°58'0 0.1
2017-Oct-16 18:29N 42°20' W 070°58'0 0.0
2017-Oct-16 17:59N 42°20' W 070°58'0 0.0
2017-Oct-16 17:20N 42°20' W 070°58'0 0.0
2017-Oct-16 16:59N 42°20' W 070°58'0 0.0
2017-Oct-16 16:29N 42°20' W 070°58'0 0.0
2017-Oct-16 15:59N 42°20' W 070°58'0 0.0
2017-Oct-16 15:29N 42°20' W 070°58'0 0.0
2017-Oct-16 14:59N 42°20' W 070°58'0 0.1
2017-Oct-16 14:29N 42°20' W 070°58'0 0.1
2017-Oct-16 13:29N 42°20' W 070°58'0 0.1
2017-Oct-16 12:59N 42°20' W 070°58'0 0.1
2017-Oct-16 12:29N 42°20' W 070°58'0 0.0
2017-Oct-16 11:59N 42°20' W 070°58'0 0.0
2017-Oct-16 11:29N 42°20' W 070°58'0 0.0
2017-Oct-16 10:59N 42°20' W 070°58'0 0.1
2017-Oct-16 10:29N 42°20' W 070°58'0 0.2
2017-Oct-16 09:59N 42°21' W 070°58'0 0.1
2017-Oct-16 09:29N 42°21' W 070°58'0 0.1
2017-Oct-16 08:59N 42°21' W 070°58'0 0.0
2017-Oct-16 08:29N 42°21' W 070°58'0 0.2
2017-Oct-16 07:59N 42°21' W 070°58'0 0.1
2017-Oct-16 07:29N 42°20' W 070°58'0 0.1
2017-Oct-16 06:59N 42°20' W 070°58'0 0.0
2017-Oct-16 06:29N 42°20' W 070°58'0 0.0
2017-Oct-16 05:59N 42°20' W 070°58'0 0.0
2017-Oct-16 05:29N 42°20' W 070°58'0 0.0
2017-Oct-16 04:59N 42°20' W 070°58'0 0.1
2017-Oct-16 04:29N 42°20' W 070°58'0 0.0
2017-Oct-16 03:59N 42°20' W 070°58'0 0.0
2017-Oct-16 03:29N 42°20' W 070°58'0 0.1
2017-Oct-16 02:59N 42°20' W 070°58'0 0.0
2017-Oct-16 02:29N 42°20' W 070°58'0 0.0
2017-Oct-16 01:59N 42°21' W 070°58'0 0.0
2017-Oct-16 01:29N 42°20' W 070°58'0 0.0
2017-Oct-16 00:59N 42°21' W 070°58'0 0.0
2017-Oct-16 00:30N 42°21' W 070°58'0 0.3
2017-Oct-16 00:00N 42°20' W 070°58'3 5.1
2017-Oct-15 23:30N 42°22' W 070°55'4 7.7
2017-Oct-15 23:00N 42°23' W 070°50'4 8.5
2017-Oct-15 22:30N 42°20' W 070°45'4 8.1
2017-Oct-15 22:00N 42°18' W 070°40'4 7.7
2017-Oct-15 21:30N 42°16' W 070°37'5 8.0
2017-Oct-15 20:55N 42°12' W 070°32'3 7.7
2017-Oct-15 20:30N 42°09' W 070°31'4 7.9
2017-Oct-15 19:59N 42°05' W 070°30'90 7.1
2017-Oct-15 07:24N 41°14' W 072°08'4 9.0
2017-Oct-15 07:00N 41°13' W 072°13'5 9.9
2017-Oct-15 06:30N 41°11' W 072°19'510.3
2017-Oct-15 06:00N 41°09' W 072°26'510.2
2017-Oct-15 05:30N 41°08' W 072°32'510.5
2017-Oct-15 05:00N 41°07' W 072°39'610.3
2017-Oct-15 04:28N 41°06' W 072°46'46 9.8
2017-Oct-14 23:47N 40°52' W 073°44'3 9.0
2017-Oct-14 23:30N 40°50' W 073°46'3 6.7
2017-Oct-14 23:00N 40°48' W 073°50'4 8.0
2017-Oct-14 22:29N 40°47' W 073°55'4 8.6
2017-Oct-14 22:00N 40°43' W 073°58'5 9.4
2017-Oct-14 21:30N 40°40' W 074°02'4 7.3
2017-Oct-14 20:58N 40°39' W 074°07'0 0.0
2017-Oct-14 20:28N 40°39' W 074°07'0 0.0
2017-Oct-14 19:58N 40°39' W 074°07'0 0.0
2017-Oct-14 19:28N 40°39' W 074°07'0 0.0
2017-Oct-14 18:56N 40°39' W 074°07'0 0.0
2017-Oct-14 18:29N 40°39' W 074°07'0 0.0
2017-Oct-14 17:58N 40°39' W 074°07'0 0.0
2017-Oct-14 17:25N 40°39' W 074°07'0 0.0
2017-Oct-14 16:58N 40°39' W 074°07'0 0.0
2017-Oct-14 16:28N 40°39' W 074°07'0 0.0
2017-Oct-14 15:55N 40°39' W 074°07'0 0.0
2017-Oct-14 15:25N 40°39' W 074°07'0 0.0
2017-Oct-14 14:58N 40°39' W 074°07'0 0.0
2017-Oct-14 14:25N 40°39' W 074°07'0 0.0
2017-Oct-14 13:58N 40°39' W 074°07'0 0.0
2017-Oct-14 13:28N 40°39' W 074°07'0 0.0
2017-Oct-14 12:58N 40°39' W 074°07'0 0.0
2017-Oct-14 12:28N 40°39' W 074°07'0 0.0
2017-Oct-14 11:58N 40°39' W 074°07'0 0.0
2017-Oct-14 11:28N 40°39' W 074°07'0 0.0
2017-Oct-14 10:58N 40°39' W 074°07'1 2.8
2017-Oct-14 10:30N 40°39' W 074°09'2 4.2
2017-Oct-14 09:57N 40°38' W 074°12'0 0.0
2017-Oct-14 09:24N 40°38' W 074°12'0 0.0
2017-Oct-14 09:00N 40°38' W 074°12'0 0.0
2017-Oct-14 08:27N 40°38' W 074°12'0 0.0
2017-Oct-14 08:00N 40°38' W 074°12'0 0.0
2017-Oct-14 07:30N 40°38' W 074°12'0 0.0
2017-Oct-14 07:00N 40°38' W 074°12'0 0.0
2017-Oct-14 06:30N 40°38' W 074°12'0 0.0
2017-Oct-14 06:00N 40°38' W 074°12'0 0.0
2017-Oct-14 05:30N 40°38' W 074°12'0 0.0
2017-Oct-14 05:00N 40°38' W 074°12'0 0.0
2017-Oct-14 04:30N 40°38' W 074°12'1 2.8
2017-Oct-14 03:59N 40°39' W 074°10'2 4.3
2017-Oct-14 03:28N 40°39' W 074°07'0 0.0
2017-Oct-14 02:52N 40°39' W 074°07'0 0.0
2017-Oct-14 02:28N 40°39' W 074°07'0 0.1
2017-Oct-14 01:58N 40°39' W 074°07'1 2.4
2017-Oct-14 01:30N 40°39' W 074°06'2 4.6
2017-Oct-14 00:59N 40°39' W 074°02'0 0.0
2017-Oct-14 00:29N 40°39' W 074°02'0 0.1
2017-Oct-13 23:56N 40°40' W 074°03'0 0.1
2017-Oct-13 23:29N 40°40' W 074°03'0 0.0
2017-Oct-13 22:56N 40°40' W 074°03'0 0.0
2017-Oct-13 22:29N 40°40' W 074°03'0 0.0
2017-Oct-13 21:59N 40°40' W 074°03'0 0.1
2017-Oct-13 21:29N 40°40' W 074°03'0 0.0
2017-Oct-13 20:56N 40°40' W 074°03'0 0.0
2017-Oct-13 20:29N 40°40' W 074°03'0 0.1
2017-Oct-13 19:59N 40°40' W 074°02'1 2.5
2017-Oct-13 19:30N 40°39' W 074°04'5 9.4
2017-Oct-13 19:00N 40°39' W 074°10'0 0.5
2017-Oct-13 18:30N 40°39' W 074°10'0 0.0
2017-Oct-13 18:00N 40°39' W 074°10'0 0.0
2017-Oct-13 17:30N 40°39' W 074°10'0 0.0
2017-Oct-13 17:00N 40°39' W 074°10'0 0.0
2017-Oct-13 16:30N 40°39' W 074°10'0 0.0
2017-Oct-13 16:00N 40°39' W 074°10'0 0.0
2017-Oct-13 15:30N 40°39' W 074°10'0 0.0
2017-Oct-13 15:00N 40°39' W 074°10'0 0.0
2017-Oct-13 14:30N 40°39' W 074°10'0 0.0
2017-Oct-13 13:54N 40°39' W 074°10'0 0.0
2017-Oct-13 13:30N 40°39' W 074°10'0 0.0
2017-Oct-13 13:00N 40°39' W 074°10'0 0.0
2017-Oct-13 12:30N 40°39' W 074°10'0 0.0
2017-Oct-13 12:00N 40°39' W 074°10'0 0.0
2017-Oct-13 11:27N 40°39' W 074°10'0 0.0
2017-Oct-13 11:00N 40°39' W 074°10'0 0.0
2017-Oct-13 10:30N 40°39' W 074°10'0 0.0
2017-Oct-13 10:00N 40°39' W 074°10'0 0.0
2017-Oct-13 09:27N 40°39' W 074°10'0 0.0
2017-Oct-13 09:00N 40°39' W 074°10'0 0.0
2017-Oct-13 08:30N 40°39' W 074°10'0 0.0
2017-Oct-13 08:00N 40°39' W 074°10'0 0.0
2017-Oct-13 07:30N 40°39' W 074°10'0 0.0
2017-Oct-13 07:00N 40°39' W 074°10'0 0.0
2017-Oct-13 06:30N 40°39' W 074°10'0 0.0
2017-Oct-13 06:00N 40°39' W 074°10'0 0.0
2017-Oct-13 05:30N 40°39' W 074°10'0 0.0
2017-Oct-13 04:57N 40°39' W 074°10'0 0.0
2017-Oct-13 04:30N 40°39' W 074°10'0 0.0
2017-Oct-13 04:00N 40°39' W 074°10'0 0.0
2017-Oct-13 03:30N 40°39' W 074°10'0 0.0
2017-Oct-13 03:00N 40°39' W 074°10'0 0.0
2017-Oct-13 02:27N 40°39' W 074°10'0 0.0
2017-Oct-13 01:57N 40°39' W 074°10'0 0.0
2017-Oct-13 01:27N 40°39' W 074°10'0 0.0
2017-Oct-13 00:57N 40°39' W 074°10'0 0.7
2017-Oct-13 00:30N 40°39' W 074°10'4 8.4
2017-Oct-13 00:00N 40°39' W 074°05'510.6
2017-Oct-12 23:30N 40°42' W 073°59'1 1.3
2017-Oct-12 22:54N 40°42' W 073°58'0 0.0
2017-Oct-12 22:30N 40°42' W 073°58'0 0.0
2017-Oct-12 22:00N 40°42' W 073°58'0 0.0
2017-Oct-12 21:30N 40°42' W 073°58'0 0.0
2017-Oct-12 21:00N 40°42' W 073°58'0 0.0
2017-Oct-12 20:30N 40°42' W 073°58'0 0.0
2017-Oct-12 19:57N 40°42' W 073°58'0 0.0
2017-Oct-12 19:30N 40°42' W 073°58'0 0.0
2017-Oct-12 19:00N 40°42' W 073°58'0 0.0
2017-Oct-12 18:30N 40°42' W 073°58'0 0.0
2017-Oct-12 18:00N 40°42' W 073°58'0 0.0
2017-Oct-12 17:30N 40°42' W 073°58'0 0.0
2017-Oct-12 17:00N 40°42' W 073°58'0 0.0
2017-Oct-12 16:30N 40°42' W 073°58'0 0.0
2017-Oct-12 16:00N 40°42' W 073°58'0 0.0
2017-Oct-12 15:30N 40°42' W 073°58'0 0.0
2017-Oct-12 15:00N 40°42' W 073°58'0 0.0
2017-Oct-12 14:30N 40°42' W 073°58'0 0.3
2017-Oct-12 14:00N 40°42' W 073°59'4 8.7
2017-Oct-12 13:30N 40°46' W 073°57'3 6.1
2017-Oct-12 13:00N 40°48' W 073°53'2 4.6
2017-Oct-12 12:29N 40°48' W 073°50'2 4.3
2017-Oct-12 11:55N 40°49' W 073°47'2 5.2
2017-Oct-12 11:28N 40°51' W 073°46'4 7.4
2017-Oct-12 10:54N 40°54' W 073°41'47 8.5
2017-Oct-12 05:22N 41°07' W 072°42'511.7
2017-Oct-12 04:55N 41°08' W 072°35'512.1
2017-Oct-12 04:30N 41°09' W 072°28'611.2
2017-Oct-12 04:00N 41°11' W 072°21'810.4
2017-Oct-12 03:14N 41°13' W 072°11'310.0
2017-Oct-12 02:58N 41°14' W 072°08'87 8.5
2017-Oct-11 16:43N 42°02' W 070°30'24 0.9
2017-Oct-10 13:59N 42°14' W 070°58'1 1.8
2017-Oct-10 13:30N 42°15' W 070°58'3 5.7
2017-Oct-10 13:00N 42°17' W 070°56'2 4.7
2017-Oct-10 12:30N 42°19' W 070°54'3 5.4
2017-Oct-10 12:00N 42°20' W 070°50'3 6.1
2017-Oct-10 11:30N 42°23' W 070°53'5 9.2
2017-Oct-10 11:00N 42°20' W 070°58'0 0.5
2017-Oct-10 10:30N 42°20' W 070°58'0 0.1
2017-Oct-10 10:00N 42°20' W 070°58'0 0.0
2017-Oct-10 09:30N 42°20' W 070°58'  
Track history (hours):
 
Tides and Currents Weather Stations Pressure Air Temp Water Temp Dewpoint Dewpoint Depression Visibility Wind Speed Wind Dir Waves Ship Positions

Barry Silverton

Owner: Harley Marine Services, Inc, Seattle, WA. More information available from US FCC via Universal Licensing System and Coast Guard Vessel Documentation Center.

Last reported at 2017-Oct-20 09:09 UTC. Time now 2017-Oct-20 12:48 UTC.
Position N 40°36' W 074°12'.

Length 178 m; draft 4.3 m.

Type: Ship. MMSI: 367677130.

Date/timePositionNaut miles runAvg speedWind from/ knotsBaromVisibWave heightAir tempDewpointWater temp
2017-Oct-20 09:09N 40°36' W 074°12'0 0.0
2017-Oct-20 08:57N 40°36' W 074°12'0 0.0
2017-Oct-20 08:27N 40°36' W 074°12'0 0.0
2017-Oct-20 07:57N 40°36' W 074°12'0 0.0
2017-Oct-20 07:30N 40°36' W 074°12'0 0.0
2017-Oct-20 06:57N 40°36' W 074°12'0 0.0
2017-Oct-20 06:30N 40°36' W 074°12'0 0.0
2017-Oct-20 05:54N 40°36' W 074°12'0 0.0
2017-Oct-20 05:27N 40°36' W 074°12'0 0.0
2017-Oct-20 04:27N 40°36' W 074°12'0 0.0
2017-Oct-20 02:33N 40°36' W 074°12'0 0.0
2017-Oct-20 02:27N 40°36' W 074°12'0 0.0
2017-Oct-20 01:55N 40°36' W 074°12'1 3.1
2017-Oct-20 01:30N 40°35' W 074°13'1 2.4
2017-Oct-20 00:59N 40°36' W 074°12'2 5.1
2017-Oct-20 00:30N 40°38' W 074°12'4 7.0
2017-Oct-20 00:00N 40°39' W 074°07'3 5.4
2017-Oct-19 23:30N 40°39' W 074°04'4 8.6
2017-Oct-19 23:00N 40°43' W 074°01'4 8.6
2017-Oct-19 22:30N 40°47' W 073°60'1 1.9
2017-Oct-19 21:58N 40°48' W 073°59'0 0.3
2017-Oct-19 21:28N 40°48' W 073°59'0 0.1
2017-Oct-19 20:52N 40°48' W 073°59'0 0.0
2017-Oct-19 20:28N 40°48' W 073°59'0 0.0
2017-Oct-19 19:58N 40°48' W 073°59'0 0.0
2017-Oct-19 19:25N 40°48' W 073°59'0 0.0
2017-Oct-19 18:58N 40°48' W 073°59'0 0.0
2017-Oct-19 18:25N 40°48' W 073°59'0 0.0
2017-Oct-19 17:58N 40°48' W 073°59'0 0.1
2017-Oct-19 17:10N 40°48' W 073°59'0 0.3
2017-Oct-19 16:58N 40°48' W 073°59'0 0.1
2017-Oct-19 16:30N 40°48' W 073°59'0 0.1
2017-Oct-19 16:00N 40°48' W 073°59'2 4.3
2017-Oct-19 15:30N 40°46' W 074°00'4 8.9
2017-Oct-19 15:00N 40°42' W 074°01'5 9.5
2017-Oct-19 14:30N 40°46' W 073°57'3 6.3
2017-Oct-19 14:00N 40°48' W 073°54'4 7.8
2017-Oct-19 13:29N 40°48' W 073°49'4 7.4
2017-Oct-19 13:00N 40°51' W 073°46'3 6.9
2017-Oct-19 12:30N 40°54' W 073°43'3 6.2
2017-Oct-19 12:00N 40°55' W 073°39'3 6.1
2017-Oct-19 11:30N 40°57' W 073°36'41 8.7
2017-Oct-19 06:49N 41°06' W 072°43'3 8.5
2017-Oct-19 06:29N 41°07' W 072°40'4 8.1
2017-Oct-19 06:00N 41°08' W 072°35'4 7.9
2017-Oct-19 05:29N 41°09' W 072°30'4 7.9
2017-Oct-19 05:00N 41°10' W 072°25'4 7.9
2017-Oct-19 04:30N 41°12' W 072°20'4 8.6
2017-Oct-19 04:00N 41°13' W 072°15'5 9.4
2017-Oct-19 03:28N 41°14' W 072°08'5 9.9
2017-Oct-19 02:57N 41°14' W 072°01'86 7.8
2017-Oct-18 15:53N 42°10' W 070°32'410.0
2017-Oct-18 15:30N 42°13' W 070°35'510.4
2017-Oct-18 15:00N 42°16' W 070°40'10 9.7
2017-Oct-18 14:00N 42°19' W 070°52'3 6.7
2017-Oct-18 13:30N 42°17' W 070°56'3 0.5
2017-Oct-18 06:19N 42°14' W 070°58'0 0.0
2017-Oct-18 05:55N 42°14' W 070°58'0 0.0
2017-Oct-17 22:19N 42°14' W 070°58'0 0.0
2017-Oct-17 15:51N 42°14' W 070°58'1 2.3
2017-Oct-17 15:28N 42°15' W 070°57'3 6.1
2017-Oct-17 15:00N 42°18' W 070°56'2 4.5
2017-Oct-17 14:30N 42°19' W 070°53'2 3.9
2017-Oct-17 13:58N 42°20' W 070°51'2 4.7
2017-Oct-17 13:30N 42°22' W 070°50'3 6.5
2017-Oct-17 13:00N 42°21' W 070°54'3 5.3
2017-Oct-17 12:29N 42°20' W 070°58'0 0.1
2017-Oct-17 11:59N 42°20' W 070°58'0 0.0
2017-Oct-17 11:29N 42°20' W 070°58'0 0.2
2017-Oct-17 10:59N 42°20' W 070°58'0 0.0
2017-Oct-17 10:29N 42°20' W 070°58'0 0.1
2017-Oct-17 09:59N 42°20' W 070°58'0 0.2
2017-Oct-17 09:29N 42°20' W 070°58'0 0.0
2017-Oct-17 08:59N 42°20' W 070°58'0 0.1
2017-Oct-17 08:29N 42°20' W 070°58'0 0.1
2017-Oct-17 07:59N 42°20' W 070°58'0 0.1
2017-Oct-17 07:29N 42°20' W 070°58'0 0.0
2017-Oct-17 06:59N 42°20' W 070°58'0 0.0
2017-Oct-17 06:29N 42°20' W 070°58'0 0.0
2017-Oct-17 05:59N 42°20' W 070°58'0 0.0
2017-Oct-17 05:29N 42°20' W 070°58'0 0.0
2017-Oct-17 04:59N 42°20' W 070°58'0 0.0
2017-Oct-17 04:29N 42°20' W 070°58'0 0.0
2017-Oct-17 03:59N 42°20' W 070°58'0 0.0
2017-Oct-17 03:14N 42°20' W 070°58'0 0.0
2017-Oct-17 02:59N 42°20' W 070°58'0 0.1
2017-Oct-17 02:29N 42°20' W 070°58'0 0.1
2017-Oct-17 01:59N 42°20' W 070°58'0 0.1
2017-Oct-17 01:29N 42°20' W 070°58'0 0.0
2017-Oct-17 00:59N 42°20' W 070°58'0 0.0
2017-Oct-17 00:29N 42°20' W 070°58'0 0.1
2017-Oct-16 23:59N 42°20' W 070°58'0 0.2
2017-Oct-16 23:29N 42°20' W 070°58'0 0.3
2017-Oct-16 22:59N 42°20' W 070°58'0 0.1
2017-Oct-16 22:29N 42°20' W 070°58'0 0.1
2017-Oct-16 21:59N 42°20' W 070°58'0 0.1
2017-Oct-16 21:29N 42°20' W 070°58'0 0.4
2017-Oct-16 20:59N 42°20' W 070°58'0 0.2
2017-Oct-16 20:29N 42°20' W 070°58'0 0.0
2017-Oct-16 19:59N 42°20' W 070°58'0 0.0
2017-Oct-16 19:29N 42°20' W 070°58'0 0.0
2017-Oct-16 18:59N 42°20' W 070°58'0 0.1
2017-Oct-16 18:29N 42°20' W 070°58'0 0.0
2017-Oct-16 17:59N 42°20' W 070°58'0 0.0
2017-Oct-16 17:20N 42°20' W 070°58'0 0.0
2017-Oct-16 16:59N 42°20' W 070°58'0 0.0
2017-Oct-16 16:29N 42°20' W 070°58'0 0.0
2017-Oct-16 15:59N 42°20' W 070°58'0 0.0
2017-Oct-16 15:29N 42°20' W 070°58'0 0.0
2017-Oct-16 14:59N 42°20' W 070°58'0 0.1
2017-Oct-16 14:29N 42°20' W 070°58'0 0.1
2017-Oct-16 13:29N 42°20' W 070°58'0 0.1
2017-Oct-16 12:59N 42°20' W 070°58'0 0.1
2017-Oct-16 12:29N 42°20' W 070°58'0 0.0
2017-Oct-16 11:59N 42°20' W 070°58'0 0.0
2017-Oct-16 11:29N 42°20' W 070°58'0 0.0
2017-Oct-16 10:59N 42°20' W 070°58'0 0.1
2017-Oct-16 10:29N 42°20' W 070°58'0 0.2
2017-Oct-16 09:59N 42°21' W 070°58'0 0.1
2017-Oct-16 09:29N 42°21' W 070°58'0 0.1
2017-Oct-16 08:59N 42°21' W 070°58'0 0.0
2017-Oct-16 08:29N 42°21' W 070°58'0 0.2
2017-Oct-16 07:59N 42°21' W 070°58'0 0.1
2017-Oct-16 07:29N 42°20' W 070°58'0 0.1
2017-Oct-16 06:59N 42°20' W 070°58'0 0.0
2017-Oct-16 06:29N 42°20' W 070°58'0 0.0
2017-Oct-16 05:59N 42°20' W 070°58'0 0.0
2017-Oct-16 05:29N 42°20' W 070°58'0 0.0
2017-Oct-16 04:59N 42°20' W 070°58'0 0.1
2017-Oct-16 04:29N 42°20' W 070°58'0 0.0
2017-Oct-16 03:59N 42°20' W 070°58'0 0.0
2017-Oct-16 03:29N 42°20' W 070°58'0 0.1
2017-Oct-16 02:59N 42°20' W 070°58'0 0.0
2017-Oct-16 02:29N 42°20' W 070°58'0 0.0
2017-Oct-16 01:59N 42°21' W 070°58'0 0.0
2017-Oct-16 01:29N 42°20' W 070°58'0 0.0
2017-Oct-16 00:59N 42°21' W 070°58'0 0.0
2017-Oct-16 00:30N 42°21' W 070°58'0 0.3
2017-Oct-16 00:00N 42°20' W 070°58'3 5.1
2017-Oct-15 23:30N 42°22' W 070°55'4 7.7
2017-Oct-15 23:00N 42°23' W 070°50'4 8.5
2017-Oct-15 22:30N 42°20' W 070°45'4 8.1
2017-Oct-15 22:00N 42°18' W 070°40'4 7.7
2017-Oct-15 21:30N 42°16' W 070°37'5 8.0
2017-Oct-15 20:55N 42°12' W 070°32'3 7.7
2017-Oct-15 20:30N 42°09' W 070°31'4 7.9
2017-Oct-15 19:59N 42°05' W 070°30'90 7.1
2017-Oct-15 07:24N 41°14' W 072°08'4 9.0
2017-Oct-15 07:00N 41°13' W 072°13'5 9.9
2017-Oct-15 06:30N 41°11' W 072°19'510.3
2017-Oct-15 06:00N 41°09' W 072°26'510.2
2017-Oct-15 05:30N 41°08' W 072°32'510.5
2017-Oct-15 05:00N 41°07' W 072°39'610.3
2017-Oct-15 04:28N 41°06' W 072°46'46 9.8
2017-Oct-14 23:47N 40°52' W 073°44'3 9.0
2017-Oct-14 23:30N 40°50' W 073°46'3 6.7
2017-Oct-14 23:00N 40°48' W 073°50'4 8.0
2017-Oct-14 22:29N 40°47' W 073°55'4 8.6
2017-Oct-14 22:00N 40°43' W 073°58'5 9.4
2017-Oct-14 21:30N 40°40' W 074°02'4 7.3
2017-Oct-14 20:58N 40°39' W 074°07'0 0.0
2017-Oct-14 20:28N 40°39' W 074°07'0 0.0
2017-Oct-14 19:58N 40°39' W 074°07'0 0.0
2017-Oct-14 19:28N 40°39' W 074°07'0 0.0
2017-Oct-14 18:56N 40°39' W 074°07'0 0.0
2017-Oct-14 18:29N 40°39' W 074°07'0 0.0
2017-Oct-14 17:58N 40°39' W 074°07'0 0.0
2017-Oct-14 17:25N 40°39' W 074°07'0 0.0
2017-Oct-14 16:58N 40°39' W 074°07'0 0.0
2017-Oct-14 16:28N 40°39' W 074°07'0 0.0
2017-Oct-14 15:55N 40°39' W 074°07'0 0.0
2017-Oct-14 15:25N 40°39' W 074°07'0 0.0
2017-Oct-14 14:58N 40°39' W 074°07'0 0.0
2017-Oct-14 14:25N 40°39' W 074°07'0 0.0
2017-Oct-14 13:58N 40°39' W 074°07'0 0.0
2017-Oct-14 13:28N 40°39' W 074°07'0 0.0
2017-Oct-14 12:58N 40°39' W 074°07'0 0.0
2017-Oct-14 12:28N 40°39' W 074°07'0 0.0
2017-Oct-14 11:58N 40°39' W 074°07'0 0.0
2017-Oct-14 11:28N 40°39' W 074°07'0 0.0
2017-Oct-14 10:58N 40°39' W 074°07'1 2.8
2017-Oct-14 10:30N 40°39' W 074°09'2 4.2
2017-Oct-14 09:57N 40°38' W 074°12'0 0.0
2017-Oct-14 09:24N 40°38' W 074°12'0 0.0
2017-Oct-14 09:00N 40°38' W 074°12'0 0.0
2017-Oct-14 08:27N 40°38' W 074°12'0 0.0
2017-Oct-14 08:00N 40°38' W 074°12'0 0.0
2017-Oct-14 07:30N 40°38' W 074°12'0 0.0
2017-Oct-14 07:00N 40°38' W 074°12'0 0.0
2017-Oct-14 06:30N 40°38' W 074°12'0 0.0
2017-Oct-14 06:00N 40°38' W 074°12'0 0.0
2017-Oct-14 05:30N 40°38' W 074°12'0 0.0
2017-Oct-14 05:00N 40°38' W 074°12'0 0.0
2017-Oct-14 04:30N 40°38' W 074°12'1 2.8
2017-Oct-14 03:59N 40°39' W 074°10'2 4.3
2017-Oct-14 03:28N 40°39' W 074°07'0 0.0
2017-Oct-14 02:52N 40°39' W 074°07'0 0.0
2017-Oct-14 02:28N 40°39' W 074°07'0 0.1
2017-Oct-14 01:58N 40°39' W 074°07'1 2.4
2017-Oct-14 01:30N 40°39' W 074°06'2 4.6
2017-Oct-14 00:59N 40°39' W 074°02'0 0.0
2017-Oct-14 00:29N 40°39' W 074°02'0 0.1
2017-Oct-13 23:56N 40°40' W 074°03'0 0.1
2017-Oct-13 23:29N 40°40' W 074°03'0 0.0
2017-Oct-13 22:56N 40°40' W 074°03'0 0.0
2017-Oct-13 22:29N 40°40' W 074°03'0 0.0
2017-Oct-13 21:59N 40°40' W 074°03'0 0.1
2017-Oct-13 21:29N 40°40' W 074°03'0 0.0
2017-Oct-13 20:56N 40°40' W 074°03'0 0.0
2017-Oct-13 20:29N 40°40' W 074°03'0 0.1
2017-Oct-13 19:59N 40°40' W 074°02'1 2.5
2017-Oct-13 19:30N 40°39' W 074°04'5 9.4
2017-Oct-13 19:00N 40°39' W 074°10'0 0.5
2017-Oct-13 18:30N 40°39' W 074°10'0 0.0
2017-Oct-13 18:00N 40°39' W 074°10'0 0.0
2017-Oct-13 17:30N 40°39' W 074°10'0 0.0
2017-Oct-13 17:00N 40°39' W 074°10'0 0.0
2017-Oct-13 16:30N 40°39' W 074°10'0 0.0
2017-Oct-13 16:00N 40°39' W 074°10'0 0.0
2017-Oct-13 15:30N 40°39' W 074°10'0 0.0
2017-Oct-13 15:00N 40°39' W 074°10'0 0.0
2017-Oct-13 14:30N 40°39' W 074°10'0 0.0
2017-Oct-13 13:54N 40°39' W 074°10'0 0.0
2017-Oct-13 13:30N 40°39' W 074°10'0 0.0
2017-Oct-13 13:00N 40°39' W 074°10'0 0.0
2017-Oct-13 12:30N 40°39' W 074°10'0 0.0
2017-Oct-13 12:00N 40°39' W 074°10'0 0.0
2017-Oct-13 11:27N 40°39' W 074°10'0 0.0
2017-Oct-13 11:00N 40°39' W 074°10'0 0.0
2017-Oct-13 10:30N 40°39' W 074°10'0 0.0
2017-Oct-13 10:00N 40°39' W 074°10'0 0.0
2017-Oct-13 09:27N 40°39' W 074°10'0 0.0
2017-Oct-13 09:00N 40°39' W 074°10'0 0.0
2017-Oct-13 08:30N 40°39' W 074°10'0 0.0
2017-Oct-13 08:00N 40°39' W 074°10'0 0.0
2017-Oct-13 07:30N 40°39' W 074°10'0 0.0
2017-Oct-13 07:00N 40°39' W 074°10'0 0.0
2017-Oct-13 06:30N 40°39' W 074°10'0 0.0
2017-Oct-13 06:00N 40°39' W 074°10'0 0.0
2017-Oct-13 05:30N 40°39' W 074°10'0 0.0
2017-Oct-13 04:57N 40°39' W 074°10'0 0.0
2017-Oct-13 04:30N 40°39' W 074°10'0 0.0
2017-Oct-13 04:00N 40°39' W 074°10'0 0.0
2017-Oct-13 03:30N 40°39' W 074°10'0 0.0
2017-Oct-13 03:00N 40°39' W 074°10'0 0.0
2017-Oct-13 02:27N 40°39' W 074°10'0 0.0
2017-Oct-13 01:57N 40°39' W 074°10'0 0.0
2017-Oct-13 01:27N 40°39' W 074°10'0 0.0
2017-Oct-13 00:57N 40°39' W 074°10'0 0.7
2017-Oct-13 00:30N 40°39' W 074°10'4 8.4
2017-Oct-13 00:00N 40°39' W 074°05'510.6
2017-Oct-12 23:30N 40°42' W 073°59'1 1.3
2017-Oct-12 22:54N 40°42' W 073°58'0 0.0
2017-Oct-12 22:30N 40°42' W 073°58'0 0.0
2017-Oct-12 22:00N 40°42' W 073°58'0 0.0
2017-Oct-12 21:30N 40°42' W 073°58'0 0.0
2017-Oct-12 21:00N 40°42' W 073°58'0 0.0
2017-Oct-12 20:30N 40°42' W 073°58'0 0.0
2017-Oct-12 19:57N 40°42' W 073°58'0 0.0
2017-Oct-12 19:30N 40°42' W 073°58'0 0.0
2017-Oct-12 19:00N 40°42' W 073°58'0 0.0
2017-Oct-12 18:30N 40°42' W 073°58'0 0.0
2017-Oct-12 18:00N 40°42' W 073°58'0 0.0
2017-Oct-12 17:30N 40°42' W 073°58'0 0.0
2017-Oct-12 17:00N 40°42' W 073°58'0 0.0
2017-Oct-12 16:30N 40°42' W 073°58'0 0.0
2017-Oct-12 16:00N 40°42' W 073°58'0 0.0
2017-Oct-12 15:30N 40°42' W 073°58'0 0.0
2017-Oct-12 15:00N 40°42' W 073°58'0 0.0
2017-Oct-12 14:30N 40°42' W 073°58'0 0.3
2017-Oct-12 14:00N 40°42' W 073°59'4 8.7
2017-Oct-12 13:30N 40°46' W 073°57'3 6.1
2017-Oct-12 13:00N 40°48' W 073°53'2 4.6
2017-Oct-12 12:29N 40°48' W 073°50'2 4.3
2017-Oct-12 11:55N 40°49' W 073°47'2 5.2
2017-Oct-12 11:28N 40°51' W 073°46'4 7.4
2017-Oct-12 10:54N 40°54' W 073°41'47 8.5
2017-Oct-12 05:22N 41°07' W 072°42'511.7
2017-Oct-12 04:55N 41°08' W 072°35'512.1
2017-Oct-12 04:30N 41°09' W 072°28'611.2
2017-Oct-12 04:00N 41°11' W 072°21'810.4
2017-Oct-12 03:14N 41°13' W 072°11'310.0
2017-Oct-12 02:58N 41°14' W 072°08'87 8.5
2017-Oct-11 16:43N 42°02' W 070°30'24 0.9
2017-Oct-10 13:59N 42°14' W 070°58'1 1.8
2017-Oct-10 13:30N 42°15' W 070°58'3 5.7
2017-Oct-10 13:00N 42°17' W 070°56'2 4.7
2017-Oct-10 12:30N 42°19' W 070°54'3 5.4
2017-Oct-10 12:00N 42°20' W 070°50'3 6.1
2017-Oct-10 11:30N 42°23' W 070°53'5 9.2
2017-Oct-10 11:00N 42°20' W 070°58'0 0.5
2017-Oct-10 10:30N 42°20' W 070°58'0 0.1
2017-Oct-10 10:00N 42°20' W 070°58'0 0.0
2017-Oct-10 09:30N 42°20' W 070°58'  

Dump ship's entire track history